createdAt,value
2023-04-26T00:03:14.257Z,3.13
2023-04-26T00:08:24.470Z,2.40
2023-04-26T00:13:29.872Z,4.30
2023-04-26T00:18:35.122Z,3.17
2023-04-26T00:23:42.846Z,3.00
2023-04-26T00:28:47.840Z,3.07
2023-04-26T00:33:54.348Z,2.70
2023-04-26T00:39:02.723Z,2.87
2023-04-26T00:44:08.507Z,3.53
2023-04-26T00:49:18.404Z,2.90
2023-04-26T00:54:28.061Z,3.40
2023-04-26T00:59:35.771Z,3.17
2023-04-26T01:04:42.612Z,4.10
2023-04-26T01:09:54.078Z,4.50
2023-04-26T01:15:00.513Z,3.00
2023-04-26T01:20:05.817Z,4.40
2023-04-26T01:25:16.450Z,3.53
2023-04-26T01:30:21.485Z,3.53
2023-04-26T01:35:28.793Z,3.97
2023-04-26T01:40:37.422Z,3.97
2023-04-26T01:45:44.575Z,4.27
2023-04-26T01:51:08.954Z,4.37
2023-04-26T01:56:18.564Z,4.10
2023-04-26T02:01:24.157Z,4.10
2023-04-26T02:06:29.619Z,4.00
2023-04-26T02:11:37.247Z,3.30
2023-04-26T02:16:43.683Z,4.13
2023-04-26T02:21:57.874Z,4.40
2023-04-26T02:27:05.804Z,4.57
2023-04-26T02:32:14.476Z,3.70
2023-04-26T02:37:22.176Z,3.73
2023-04-26T02:42:29.879Z,3.93
2023-04-26T02:47:37.117Z,3.80
2023-04-26T02:52:43.820Z,3.73
2023-04-26T02:57:51.667Z,3.67
2023-04-26T03:02:57.239Z,3.40
2023-04-26T03:08:02.634Z,3.87
2023-04-26T03:13:10.743Z,3.93
2023-04-26T03:18:17.326Z,3.70
2023-04-26T03:23:24.500Z,3.43
2023-04-26T03:28:36.237Z,3.93
2023-04-26T03:33:41.372Z,3.70
2023-04-26T03:38:47.015Z,3.87
2023-04-26T03:43:56.987Z,4.20
2023-04-26T03:49:02.364Z,4.23
2023-04-26T03:54:09.241Z,4.00
2023-04-26T03:59:17.185Z,3.97
2023-04-26T04:04:22.866Z,4.13
2023-04-26T04:09:29.061Z,3.53
2023-04-26T04:14:36.846Z,4.50
2023-04-26T04:19:45.389Z,3.70
2023-04-26T04:24:50.380Z,3.97
2023-04-26T04:30:05.650Z,3.70
2023-04-26T04:35:14.654Z,4.33
2023-04-26T04:40:22.708Z,3.83
2023-04-26T04:45:30.952Z,2.77
2023-04-26T04:50:38.934Z,3.33
2023-04-26T04:55:44.942Z,2.97
2023-04-26T05:00:56.263Z,3.67
2023-04-26T05:06:08.316Z,3.40
2023-04-26T05:11:14.449Z,3.40
2023-04-26T05:16:25.258Z,2.90
2023-04-26T05:21:31.812Z,3.20
2023-04-26T05:26:38.501Z,4.47
2023-04-26T05:32:18.805Z,3.57
2023-04-26T05:37:31.888Z,3.30
2023-04-26T05:42:37.365Z,4.33
2023-04-26T05:47:50.037Z,3.00
2023-04-26T05:52:57.599Z,4.67
2023-04-26T05:58:05.259Z,5.30
2023-04-26T06:03:13.648Z,2.50
2023-04-26T06:08:21.494Z,2.37
2023-04-26T06:13:34.376Z,2.70
2023-04-26T06:18:44.643Z,3.57
2023-04-26T06:23:51.087Z,2.87
2023-04-26T06:29:02.145Z,3.40
2023-04-26T06:34:11.502Z,3.13
2023-04-26T06:39:18.474Z,3.00
2023-04-26T06:44:24.393Z,3.27
2023-04-26T06:49:50.367Z,3.50
2023-04-26T06:54:59.394Z,3.50
2023-04-26T07:00:05.746Z,4.90
2023-04-26T07:05:17.720Z,3.93
2023-04-26T07:10:25.730Z,3.40
2023-04-26T07:15:35.904Z,3.50
2023-04-26T07:20:49.519Z,3.63
2023-04-26T07:25:59.550Z,4.50
2023-04-26T07:31:22.091Z,4.27
2023-04-26T07:36:48.569Z,4.13
2023-04-26T07:41:57.339Z,4.13
2023-04-26T07:47:03.507Z,2.67
2023-04-26T07:52:12.564Z,3.40
2023-04-26T07:57:18.342Z,2.20
2023-04-26T08:02:36.815Z,2.90
2023-04-26T08:07:52.795Z,2.30
2023-04-26T08:12:58.172Z,2.67
2023-04-26T08:18:04.418Z,2.43
2023-04-26T08:23:33.237Z,2.30
2023-04-26T08:28:58.162Z,2.63
2023-04-26T08:34:24.971Z,3.00
2023-04-26T08:39:36.704Z,1.90
2023-04-26T08:44:47.065Z,2.47
2023-04-26T08:50:00.121Z,2.47
2023-04-26T08:55:14.951Z,2.57
2023-04-26T09:00:23.446Z,2.40
2023-04-26T09:05:50.356Z,3.10
2023-04-26T09:11:02.084Z,2.53
2023-04-26T09:16:10.312Z,2.80
2023-04-26T09:21:18.225Z,2.30
2023-04-26T09:26:28.096Z,2.40
2023-04-26T09:31:43.459Z,2.27
2023-04-26T09:36:52.210Z,3.70
2023-04-26T09:42:00.692Z,2.77
2023-04-26T09:47:09.037Z,2.33
2023-04-26T09:52:15.783Z,2.40
2023-04-26T09:57:48.477Z,2.97
2023-04-26T10:03:20.029Z,2.70
2023-04-26T10:08:32.302Z,2.80
2023-04-26T10:13:46.346Z,1.90
2023-04-26T10:18:56.187Z,1.77
2023-04-26T10:24:38.707Z,1.80
2023-04-26T10:30:17.022Z,1.97
2023-04-26T10:35:24.911Z,2.40
2023-04-26T10:40:32.934Z,2.77
2023-04-26T10:45:45.837Z,2.37
2023-04-26T10:51:14.873Z,2.60
2023-04-26T10:56:56.429Z,2.30
2023-04-26T11:02:14.957Z,2.43
2023-04-26T11:07:39.917Z,2.00
2023-04-26T11:13:04.123Z,2.77
2023-04-26T11:18:13.400Z,1.93
2023-04-26T11:23:21.234Z,1.70
2023-04-26T11:28:26.496Z,2.70
2023-04-26T11:33:36.182Z,2.10
2023-04-26T11:38:41.997Z,2.53
2023-04-26T11:43:49.306Z,2.37
2023-04-26T11:48:57.579Z,2.17
2023-04-26T11:54:05.149Z,2.97
2023-04-26T11:59:11.928Z,4.40
2023-04-26T12:04:32.004Z,2.80
2023-04-26T12:09:44.001Z,3.40
2023-04-26T12:14:54.357Z,2.77
2023-04-26T12:20:04.380Z,2.23
2023-04-26T12:25:13.091Z,2.20
2023-04-26T12:30:18.897Z,2.50
2023-04-26T12:35:40.374Z,3.00
2023-04-26T12:41:04.042Z,2.57
2023-04-26T12:46:11.577Z,5.90
2023-04-26T12:51:19.416Z,3.10
2023-04-26T12:56:27.005Z,3.00
2023-04-26T13:01:32.439Z,3.30
2023-04-26T13:06:42.286Z,2.70
2023-04-26T13:11:47.659Z,3.57
2023-04-26T13:16:56.635Z,2.17
2023-04-26T13:22:08.726Z,3.80
2023-04-26T13:27:18.266Z,2.90
2023-04-26T13:32:25.096Z,3.97
2023-04-26T13:37:34.018Z,2.80
2023-04-26T13:42:39.233Z,2.40
2023-04-26T13:47:46.712Z,2.90
2023-04-26T13:52:55.429Z,3.50
2023-04-26T13:58:00.572Z,3.23
2023-04-26T14:03:06.065Z,3.77
2023-04-26T14:08:15.659Z,3.43
2023-04-26T14:13:26.145Z,2.70
2023-04-26T14:18:31.294Z,3.43
2023-04-26T14:23:40.444Z,2.97
2023-04-26T14:28:46.714Z,3.10
2023-04-26T14:33:56.885Z,2.87
2023-04-26T14:39:04.764Z,2.47
2023-04-26T14:44:11.411Z,2.73
2023-04-26T14:49:17.107Z,3.23
2023-04-26T14:54:26.203Z,3.00
2023-04-26T14:59:37.008Z,2.77
2023-04-26T15:04:43.026Z,3.47
2023-04-26T15:09:52.784Z,3.67
2023-04-26T15:14:57.973Z,2.70
2023-04-26T15:20:06.625Z,7.10
2023-04-26T15:25:15.054Z,2.63
2023-04-26T15:30:22.301Z,3.17
2023-04-26T15:35:28.044Z,2.43
2023-04-26T15:40:38.410Z,3.30
2023-04-26T15:45:43.797Z,3.37
2023-04-26T15:50:48.994Z,3.33
2023-04-26T15:55:56.639Z,4.23
2023-04-26T16:01:01.640Z,4.03
2023-04-26T16:06:08.957Z,2.90
2023-04-26T16:11:16.623Z,3.20
2023-04-26T16:16:24.255Z,6.00
2023-04-26T16:21:32.061Z,4.20
2023-04-26T16:26:41.229Z,3.40
2023-04-26T16:31:46.575Z,3.90
2023-04-26T16:36:51.706Z,3.10
2023-04-26T16:41:59.373Z,3.17
2023-04-26T16:47:05.729Z,3.37
2023-04-26T16:52:11.022Z,2.77
2023-04-26T16:57:20.509Z,2.80
2023-04-26T17:02:25.624Z,2.93
2023-04-26T17:07:31.101Z,2.93
2023-04-26T17:12:38.809Z,2.63
2023-04-26T17:17:44.100Z,3.20
2023-04-26T17:22:52.170Z,3.00
2023-04-26T17:27:59.876Z,2.83
2023-04-26T17:33:05.647Z,2.97
2023-04-26T17:38:11.071Z,3.20
2023-04-26T17:43:19.024Z,2.90
2023-04-26T17:48:24.413Z,2.40
2023-04-26T17:53:29.675Z,2.50
2023-04-26T17:58:37.397Z,2.73
2023-04-26T18:03:42.940Z,2.20
2023-04-26T18:08:48.684Z,2.40
2023-04-26T18:13:58.232Z,2.60
2023-04-26T18:19:05.531Z,2.90
2023-04-26T18:24:11.746Z,4.33
2023-04-26T18:29:20.022Z,2.83
2023-04-26T18:34:25.200Z,2.33
2023-04-26T18:39:30.570Z,2.63
2023-04-26T18:44:38.260Z,3.50
2023-04-26T18:49:43.344Z,2.77
2023-04-26T18:54:48.388Z,2.70
2023-04-26T18:59:57.654Z,3.60
2023-04-26T19:05:04.812Z,2.90
2023-04-26T19:10:11.908Z,3.77
2023-04-26T19:15:19.971Z,2.87
2023-04-26T19:20:27.424Z,2.93
2023-04-26T19:25:32.674Z,3.80
2023-04-26T19:30:42.219Z,3.20
2023-04-26T19:35:50.018Z,3.07
2023-04-26T19:40:55.478Z,3.47
2023-04-26T19:46:03.438Z,2.77
2023-04-26T19:51:08.453Z,2.70
2023-04-26T19:56:13.764Z,2.57
2023-04-26T20:01:24.409Z,3.17
2023-04-26T20:06:30.469Z,4.07
2023-04-26T20:11:35.624Z,4.13
2023-04-26T20:16:44.507Z,6.17
2023-04-26T20:21:49.565Z,5.60
2023-04-26T20:26:54.839Z,4.20
2023-04-26T20:32:02.513Z,4.10
2023-04-26T20:37:07.744Z,4.07
2023-04-26T20:42:15.518Z,3.20
2023-04-26T20:47:23.368Z,3.70
2023-04-26T20:52:28.573Z,4.20
2023-04-26T20:57:33.704Z,4.83
2023-04-26T21:02:41.834Z,4.53
2023-04-26T21:07:48.126Z,5.10
2023-04-26T21:12:53.488Z,5.37
2023-04-26T21:18:02.105Z,6.30
2023-04-26T21:23:07.204Z,5.50
2023-04-26T21:28:12.364Z,5.47
2023-04-26T21:33:20.007Z,5.63
2023-04-26T21:38:25.174Z,5.07
2023-04-26T21:43:30.739Z,7.03
2023-04-26T21:48:39.876Z,5.13
2023-04-26T21:53:45.168Z,8.07
2023-04-26T21:58:50.268Z,5.97
2023-04-26T22:03:58.047Z,5.97
2023-04-26T22:09:03.701Z,4.60
2023-04-26T22:14:08.770Z,5.37
2023-04-26T22:19:16.622Z,5.67
2023-04-26T22:24:21.966Z,4.90
2023-04-26T22:29:27.110Z,5.17
2023-04-26T22:34:34.717Z,5.27
2023-04-26T22:39:40.586Z,5.37
2023-04-26T22:44:45.792Z,5.40
2023-04-26T22:49:55.676Z,5.63
2023-04-26T22:55:01.067Z,4.87
2023-04-26T23:00:09.756Z,5.13
2023-04-26T23:05:18.867Z,6.17
2023-04-26T23:10:24.003Z,5.80
2023-04-26T23:15:29.120Z,4.70
2023-04-26T23:20:36.928Z,5.30
2023-04-26T23:25:42.375Z,6.07
2023-04-26T23:30:47.416Z,6.23
2023-04-26T23:35:57.888Z,5.90
2023-04-26T23:41:03.053Z,5.10
2023-04-26T23:46:08.280Z,4.93
2023-04-26T23:51:16.042Z,5.30
2023-04-26T23:56:21.210Z,4.67
